Wallace, Michigan
Current Conditions -  °F | °C
As of 9:55 AM on Saturday 22 Nov 2014 (Local Time) from KMNM Reporting Station
Overcast Overcast  
Wind Chill: 26°   Ceiling: 1100
Heat Index: 34°   Visibility: 5mi
Dew Point: 30°   Wind: 10mph
Humidity: 87%   Direction: 230°SW
Pressure: 29.81"   Gusts: 18mph
Location:  45.32°N, 87.6°W
Report Text: KMNM 221555Z AUTO 23009G16KT 5SM OVC011 01/M01 A2981 RMK AO1
Loading
Personal Weather Stations






























Interactive Weather Map New forecast layout! Learn more

10-Day Weather Forecast

Advertisements
Track Severe Weather on mobile